createdAt,value
2023-04-02T00:01:33.218Z,0.85
2023-04-02T00:04:38.134Z,1.00
2023-04-02T00:07:41.170Z,1.00
2023-04-02T00:10:48.475Z,1.00
2023-04-02T00:13:52.195Z,0.85
2023-04-02T00:16:57.073Z,0.90
2023-04-02T00:20:08.191Z,0.80
2023-04-02T00:23:13.534Z,0.60
2023-04-02T00:26:37.150Z,0.82
2023-04-02T00:29:55.754Z,0.90
2023-04-02T00:32:59.713Z,0.90
2023-04-02T00:36:07.990Z,0.90
2023-04-02T00:39:19.299Z,0.90
2023-04-02T00:42:25.272Z,1.00
2023-04-02T00:45:35.771Z,0.70
2023-04-02T00:48:59.034Z,0.80
2023-04-02T00:52:13.252Z,0.80
2023-04-02T00:55:17.965Z,1.00
2023-04-02T00:58:29.992Z,1.10
2023-04-02T01:01:42.598Z,0.77
2023-04-02T01:05:05.599Z,0.80
2023-04-02T01:08:27.546Z,0.80
2023-04-02T01:12:01.072Z,0.82
2023-04-02T01:15:21.487Z,0.90
2023-04-02T01:18:51.377Z,0.90
2023-04-02T01:22:00.747Z,0.80
2023-04-02T01:25:06.537Z,0.80
2023-04-02T01:28:32.065Z,0.93
2023-04-02T01:31:36.882Z,0.80
2023-04-02T01:34:40.338Z,0.93
2023-04-02T01:37:46.767Z,0.77
2023-04-02T01:40:58.721Z,0.95
2023-04-02T01:44:18.591Z,0.80
2023-04-02T01:47:29.063Z,0.82
2023-04-02T01:50:38.452Z,0.77
2023-04-02T01:53:41.300Z,0.70
2023-04-02T01:56:45.779Z,1.00
2023-04-02T01:59:48.748Z,0.60
2023-04-02T02:02:52.185Z,0.80
2023-04-02T02:05:56.805Z,0.80
2023-04-02T02:09:04.522Z,0.68
2023-04-02T02:12:07.453Z,0.80
2023-04-02T02:15:17.169Z,0.80
2023-04-02T02:18:23.558Z,0.88
2023-04-02T02:21:52.901Z,0.88
2023-04-02T02:24:58.720Z,0.73
2023-04-02T02:28:19.099Z,0.95
2023-04-02T02:31:29.269Z,0.80
2023-04-02T02:34:41.613Z,0.80
2023-04-02T02:37:47.763Z,0.85
2023-04-02T02:40:56.686Z,0.93
2023-04-02T02:44:03.067Z,0.75
2023-04-02T02:47:13.933Z,0.62
2023-04-02T02:50:23.723Z,0.68
2023-04-02T02:53:26.941Z,1.10
2023-04-02T02:56:34.450Z,1.00
2023-04-02T02:59:38.380Z,0.80
2023-04-02T03:02:43.518Z,0.90
2023-04-02T03:05:53.017Z,0.90
2023-04-02T03:09:07.574Z,0.80
2023-04-02T03:12:13.750Z,0.80
2023-04-02T03:15:35.546Z,1.20
2023-04-02T03:18:41.666Z,0.80
2023-04-02T03:21:51.807Z,1.00
2023-04-02T03:25:05.956Z,0.90
2023-04-02T03:28:17.790Z,0.98
2023-04-02T03:31:49.793Z,0.88
2023-04-02T03:34:58.209Z,0.80
2023-04-02T03:38:11.865Z,0.93
2023-04-02T03:41:24.812Z,0.90
2023-04-02T03:44:45.962Z,1.17
2023-04-02T03:48:06.143Z,1.00
2023-04-02T03:51:22.070Z,0.90
2023-04-02T03:54:25.502Z,1.00
2023-04-02T04:01:06.598Z,1.00
2023-04-02T04:04:16.611Z,1.10
2023-04-02T04:07:29.729Z,1.00
2023-04-02T04:13:53.653Z,1.15
2023-04-02T04:16:56.855Z,1.33
2023-04-02T04:20:08.265Z,0.90
2023-04-02T04:23:20.038Z,0.90
2023-04-02T04:26:35.812Z,0.90
2023-04-02T04:30:05.869Z,1.00
2023-04-02T04:33:34.615Z,1.00
2023-04-02T04:36:48.053Z,0.90
2023-04-02T04:39:56.772Z,1.08
2023-04-02T04:43:06.076Z,1.10
2023-04-02T04:46:19.496Z,1.20
2023-04-02T04:49:22.738Z,2.17
2023-04-02T04:52:32.237Z,2.90
2023-04-02T04:55:39.721Z,1.85
2023-04-02T04:59:04.176Z,1.55
2023-04-02T05:02:24.106Z,1.58
2023-04-02T05:05:34.558Z,1.55
2023-04-02T05:08:45.436Z,1.50
2023-04-02T05:12:19.368Z,1.70
2023-04-02T05:18:40.381Z,1.50
2023-04-02T05:21:50.408Z,1.30
2023-04-02T05:25:23.388Z,1.70
2023-04-02T05:31:44.146Z,1.60
2023-04-02T05:34:53.206Z,1.52
2023-04-02T05:37:55.881Z,1.60
2023-04-02T05:41:17.329Z,1.60
2023-04-02T05:44:28.569Z,3.10
2023-04-02T05:47:34.316Z,3.87
2023-04-02T05:50:43.339Z,1.70
2023-04-02T05:53:53.682Z,1.48
2023-04-02T05:57:03.530Z,1.30
2023-04-02T06:00:18.131Z,1.30
2023-04-02T06:03:27.475Z,1.85
2023-04-02T06:06:42.606Z,1.50
2023-04-02T06:09:56.152Z,1.75
2023-04-02T06:16:16.691Z,1.65
2023-04-02T06:19:27.514Z,1.50
2023-04-02T06:22:37.930Z,1.48
2023-04-02T06:26:01.780Z,1.50
2023-04-02T06:29:24.880Z,1.37
2023-04-02T06:32:29.600Z,1.50
2023-04-02T06:35:35.996Z,2.45
2023-04-02T06:38:40.911Z,7.65
2023-04-02T06:41:46.735Z,1.80
2023-04-02T06:44:52.478Z,1.30
2023-04-02T06:48:01.997Z,1.50
2023-04-02T06:51:17.851Z,1.48
2023-04-02T06:54:21.773Z,1.27
2023-04-02T06:57:25.083Z,1.20
2023-04-02T07:00:38.485Z,1.50
2023-04-02T07:03:43.005Z,1.65
2023-04-02T07:06:46.799Z,1.50
2023-04-02T07:09:49.983Z,1.58
2023-04-02T07:12:52.914Z,1.37
2023-04-02T07:15:57.427Z,1.70
2023-04-02T07:19:01.302Z,1.75
2023-04-02T07:22:05.782Z,1.40
2023-04-02T07:25:09.633Z,1.50
2023-04-02T07:31:17.237Z,1.80
2023-04-02T07:34:20.054Z,1.48
2023-04-02T07:37:22.846Z,1.87
2023-04-02T07:40:25.737Z,1.60
2023-04-02T07:46:31.111Z,1.80
2023-04-02T07:49:34.041Z,1.62
2023-04-02T07:52:43.895Z,1.30
2023-04-02T07:55:52.466Z,2.10
2023-04-02T07:58:55.484Z,1.83
2023-04-02T08:01:58.838Z,1.85
2023-04-02T08:05:02.606Z,2.20
2023-04-02T08:08:06.084Z,1.55
2023-04-02T08:11:09.735Z,1.77
2023-04-02T08:14:12.609Z,2.25
2023-04-02T08:17:15.948Z,2.00
2023-04-02T08:23:23.099Z,2.15
2023-04-02T08:26:26.098Z,1.50
2023-04-02T08:29:32.323Z,2.00
2023-04-02T08:32:35.903Z,1.80
2023-04-02T08:35:39.589Z,1.65
2023-04-02T08:38:42.337Z,1.75
2023-04-02T08:42:14.595Z,2.00
2023-04-02T08:45:32.379Z,1.70
2023-04-02T08:48:40.758Z,2.12
2023-04-02T08:51:46.207Z,2.22
2023-04-02T08:54:50.426Z,2.00
2023-04-02T08:58:37.848Z,1.90
2023-04-02T09:02:02.708Z,1.90
2023-04-02T09:05:08.251Z,1.70
2023-04-02T09:08:20.661Z,1.52
2023-04-02T09:11:23.130Z,1.97
2023-04-02T09:14:45.257Z,1.70
2023-04-02T09:17:54.200Z,2.78
2023-04-02T09:20:58.207Z,1.62
2023-04-02T09:24:01.871Z,1.90
2023-04-02T09:27:22.550Z,1.80
2023-04-02T09:31:02.203Z,2.00
2023-04-02T09:34:35.353Z,2.22
2023-04-02T09:37:37.967Z,1.58
2023-04-02T09:40:48.870Z,2.08
2023-04-02T09:44:19.173Z,1.90
2023-04-02T09:47:27.363Z,2.17
2023-04-02T09:50:31.782Z,1.90
2023-04-02T09:53:37.363Z,2.00
2023-04-02T09:56:41.220Z,2.35
2023-04-02T09:59:44.434Z,3.47
2023-04-02T10:02:59.537Z,2.55
2023-04-02T10:06:14.894Z,2.40
2023-04-02T10:09:32.538Z,2.00
2023-04-02T10:12:41.150Z,2.08
2023-04-02T10:16:09.420Z,2.20
2023-04-02T10:19:27.833Z,2.90
2023-04-02T10:22:30.810Z,3.03
2023-04-02T10:25:43.138Z,2.50
2023-04-02T10:29:06.771Z,2.40
2023-04-02T10:32:32.299Z,2.28
2023-04-02T10:35:46.219Z,2.30
2023-04-02T10:38:53.265Z,2.30
2023-04-02T10:42:11.206Z,2.72
2023-04-02T10:45:40.002Z,2.00
2023-04-02T10:49:06.031Z,2.17
2023-04-02T10:52:17.698Z,2.22
2023-04-02T10:55:29.009Z,1.85
2023-04-02T10:58:37.642Z,2.27
2023-04-02T11:01:43.314Z,1.87
2023-04-02T11:04:47.059Z,1.90
2023-04-02T11:08:04.363Z,2.05
2023-04-02T11:11:14.374Z,2.42
2023-04-02T11:14:29.754Z,2.80
2023-04-02T11:17:32.934Z,2.20
2023-04-02T11:21:04.783Z,2.22
2023-04-02T11:24:31.755Z,1.92
2023-04-02T11:27:34.586Z,1.92
2023-04-02T11:30:37.926Z,1.80
2023-04-02T11:33:44.999Z,1.83
2023-04-02T11:36:55.466Z,1.25
2023-04-02T11:40:07.834Z,1.30
2023-04-02T11:43:32.808Z,1.45
2023-04-02T11:46:40.678Z,1.45
2023-04-02T11:50:04.465Z,1.40
2023-04-02T11:53:16.306Z,1.42
2023-04-02T11:56:31.962Z,1.90
2023-04-02T11:59:50.736Z,1.60
2023-04-02T12:03:03.579Z,1.60
2023-04-02T12:06:39.917Z,1.80
2023-04-02T12:09:59.080Z,2.10
2023-04-02T12:13:02.037Z,1.95
2023-04-02T12:16:06.634Z,1.60
2023-04-02T12:19:10.002Z,1.30
2023-04-02T12:22:25.053Z,1.17
2023-04-02T12:25:32.820Z,1.23
2023-04-02T12:28:38.044Z,1.35
2023-04-02T12:31:46.500Z,0.90
2023-04-02T12:34:51.334Z,1.00
2023-04-02T12:37:54.398Z,1.27
2023-04-02T12:40:59.825Z,1.62
2023-04-02T12:44:15.554Z,1.83
2023-04-02T12:47:18.476Z,1.83
2023-04-02T12:50:22.963Z,1.70
2023-04-02T12:53:41.207Z,1.92
2023-04-02T12:56:44.827Z,2.12
2023-04-02T12:59:48.052Z,2.10
2023-04-02T13:03:15.005Z,3.05
2023-04-02T13:06:23.215Z,4.35
2023-04-02T13:09:36.174Z,1.70
2023-04-02T13:12:41.145Z,1.75
2023-04-02T13:15:44.407Z,1.52
2023-04-02T13:18:49.142Z,1.77
2023-04-02T13:21:53.095Z,2.17
2023-04-02T13:24:56.360Z,1.80
2023-04-02T13:27:59.248Z,1.58
2023-04-02T13:31:02.246Z,5.57
2023-04-02T13:34:05.067Z,3.97
2023-04-02T13:37:12.226Z,1.90
2023-04-02T13:40:17.913Z,1.20
2023-04-02T13:43:22.957Z,1.40
2023-04-02T13:46:31.159Z,1.30
2023-04-02T13:49:34.061Z,1.55
2023-04-02T13:52:37.387Z,1.10
2023-04-02T13:55:42.465Z,0.90
2023-04-02T13:58:47.981Z,0.80
2023-04-02T14:01:53.361Z,0.80
2023-04-02T14:05:27.338Z,1.02
2023-04-02T14:09:02.185Z,1.00
2023-04-02T14:12:05.080Z,2.42
2023-04-02T14:15:29.752Z,1.73
2023-04-02T14:19:06.766Z,1.00
2023-04-02T14:22:30.468Z,1.00
2023-04-02T14:26:05.520Z,1.00
2023-04-02T14:29:25.507Z,1.50
2023-04-02T14:32:39.043Z,1.10
2023-04-02T14:35:48.623Z,1.60
2023-04-02T14:39:17.583Z,1.75
2023-04-02T14:43:05.126Z,2.03
2023-04-02T14:46:10.606Z,2.00
2023-04-02T14:49:24.251Z,2.30
2023-04-02T14:52:31.667Z,1.83
2023-04-02T14:55:43.623Z,1.65
2023-04-02T14:58:52.677Z,1.90
2023-04-02T15:02:08.924Z,6.20
2023-04-02T15:05:24.485Z,1.98
2023-04-02T15:09:09.356Z,2.08
2023-04-02T15:12:27.749Z,1.73
2023-04-02T15:15:49.006Z,2.00
2023-04-02T15:19:00.711Z,2.70
2023-04-02T15:22:15.765Z,2.78
2023-04-02T15:25:42.898Z,2.58
2023-04-02T15:29:29.018Z,2.10
2023-04-02T15:32:32.542Z,2.08
2023-04-02T15:36:15.700Z,1.90
2023-04-02T15:39:52.467Z,2.80
2023-04-02T15:43:15.466Z,2.78
2023-04-02T15:46:18.345Z,2.45
2023-04-02T15:49:33.682Z,2.33
2023-04-02T15:52:57.592Z,2.60
2023-04-02T15:56:33.838Z,2.70
2023-04-02T15:59:43.070Z,3.20
2023-04-02T16:03:02.638Z,3.35
2023-04-02T16:06:17.519Z,3.85
2023-04-02T16:09:27.369Z,3.40
2023-04-02T16:12:33.537Z,3.40
2023-04-02T16:15:42.481Z,4.15
2023-04-02T16:19:20.929Z,4.12
2023-04-02T16:22:30.040Z,3.55
2023-04-02T16:25:44.937Z,4.15
2023-04-02T16:29:10.066Z,4.03
2023-04-02T16:32:37.771Z,6.95
2023-04-02T16:36:02.536Z,12.70
2023-04-02T16:39:17.543Z,5.47
2023-04-02T16:42:50.788Z,4.20
2023-04-02T16:45:56.196Z,3.85
2023-04-02T16:49:07.267Z,3.28
2023-04-02T16:52:40.656Z,3.50
2023-04-02T16:56:20.104Z,3.70
2023-04-02T17:00:07.755Z,3.78
2023-04-02T17:03:33.234Z,3.37
2023-04-02T17:06:42.160Z,3.67
2023-04-02T17:09:53.272Z,3.22
2023-04-02T17:13:15.497Z,2.47
2023-04-02T17:16:31.144Z,2.37
2023-04-02T17:19:34.105Z,2.15
2023-04-02T17:22:37.025Z,2.17
2023-04-02T17:25:48.187Z,1.70
2023-04-02T17:28:51.577Z,2.22
2023-04-02T17:32:01.356Z,2.83
2023-04-02T17:35:21.958Z,4.82
2023-04-02T17:38:39.792Z,4.60
2023-04-02T17:41:54.959Z,5.43
2023-04-02T17:45:49.428Z,3.55
2023-04-02T17:49:03.920Z,5.75
2023-04-02T17:52:23.191Z,2.80
2023-04-02T17:55:50.587Z,2.30
2023-04-02T17:59:20.961Z,2.28
2023-04-02T18:03:02.188Z,2.42
2023-04-02T18:06:11.608Z,2.00
2023-04-02T18:09:37.291Z,8.68
2023-04-02T18:12:45.943Z,3.65
2023-04-02T18:15:58.313Z,2.75
2023-04-02T18:19:14.959Z,3.12
2023-04-02T18:22:58.288Z,3.30
2023-04-02T18:26:01.192Z,5.43
2023-04-02T18:29:12.306Z,4.07
2023-04-02T18:32:17.811Z,3.87
2023-04-02T18:36:05.328Z,3.40
2023-04-02T18:39:21.729Z,4.05
2023-04-02T18:42:43.194Z,6.82
2023-04-02T18:45:58.870Z,5.80
2023-04-02T18:49:19.607Z,5.05
2023-04-02T18:52:24.869Z,4.30
2023-04-02T18:55:31.460Z,4.10
2023-04-02T18:58:49.803Z,4.70
2023-04-02T19:01:54.878Z,3.83
2023-04-02T19:05:23.059Z,3.83
2023-04-02T19:08:50.955Z,3.75
2023-04-02T19:11:53.884Z,3.90
2023-04-02T19:14:58.990Z,3.97
2023-04-02T19:18:04.984Z,4.20
2023-04-02T19:21:45.649Z,4.25
2023-04-02T19:25:00.580Z,3.85
2023-04-02T19:28:17.651Z,5.10
2023-04-02T19:31:53.242Z,4.05
2023-04-02T19:35:27.051Z,3.40
2023-04-02T19:39:01.000Z,3.75
2023-04-02T19:45:24.394Z,3.75
2023-04-02T19:48:35.706Z,3.65
2023-04-02T19:51:38.556Z,3.58
2023-04-02T19:54:41.594Z,3.72
2023-04-02T19:57:44.576Z,3.85
2023-04-02T20:00:47.504Z,3.37
2023-04-02T20:03:50.513Z,3.37
2023-04-02T20:06:54.372Z,3.87
2023-04-02T20:09:57.259Z,4.07
2023-04-02T20:13:00.070Z,3.60
2023-04-02T20:16:04.685Z,3.45
2023-04-02T20:19:07.686Z,3.50
2023-04-02T20:22:10.725Z,3.30
2023-04-02T20:25:13.842Z,3.45
2023-04-02T20:28:16.693Z,3.45
2023-04-02T20:31:19.633Z,3.20
2023-04-02T20:34:22.652Z,3.45
2023-04-02T20:37:25.709Z,3.25
2023-04-02T20:40:28.778Z,3.05
2023-04-02T20:43:32.074Z,3.50
2023-04-02T20:49:37.846Z,3.05
2023-04-02T20:52:40.922Z,3.75
2023-04-02T20:55:45.857Z,3.37
2023-04-02T20:58:49.272Z,3.50
2023-04-02T21:04:54.930Z,8.27
2023-04-02T21:07:58.091Z,3.78
2023-04-02T21:11:02.802Z,3.58
2023-04-02T21:14:05.754Z,3.60
2023-04-02T21:17:08.888Z,3.78
2023-04-02T21:20:12.568Z,3.65
2023-04-02T21:23:15.997Z,3.65
2023-04-02T21:26:19.042Z,3.30
2023-04-02T21:29:21.933Z,2.78
2023-04-02T21:32:25.079Z,3.60
2023-04-02T21:35:27.942Z,3.58
2023-04-02T21:38:31.186Z,4.00
2023-04-02T21:41:36.733Z,3.42
2023-04-02T21:44:39.618Z,3.22
2023-04-02T21:47:42.448Z,3.53
2023-04-02T21:50:45.268Z,3.95
2023-04-02T21:53:49.235Z,4.03
2023-04-02T21:56:52.747Z,3.78
2023-04-02T21:59:57.013Z,3.90
2023-04-02T22:02:59.941Z,3.97
2023-04-02T22:06:08.097Z,4.40
2023-04-02T22:09:14.361Z,3.80
2023-04-02T22:12:17.142Z,3.92
2023-04-02T22:15:19.997Z,4.30
2023-04-02T22:18:22.869Z,4.10
2023-04-02T22:21:26.341Z,4.28
2023-04-02T22:24:29.394Z,4.20
2023-04-02T22:27:33.363Z,4.07
2023-04-02T22:30:37.750Z,4.55
2023-04-02T22:33:42.120Z,4.00
2023-04-02T22:36:44.902Z,4.12
2023-04-02T22:39:47.793Z,3.62
2023-04-02T22:42:50.792Z,3.87
2023-04-02T22:45:53.770Z,4.28
2023-04-02T22:48:56.974Z,4.43
2023-04-02T22:51:59.875Z,4.15
2023-04-02T22:55:02.853Z,4.60
2023-04-02T22:58:05.810Z,4.28
2023-04-02T23:01:19.423Z,4.03
2023-04-02T23:04:22.235Z,4.15
2023-04-02T23:07:25.068Z,4.28
2023-04-02T23:10:28.836Z,4.53
2023-04-02T23:13:36.831Z,4.50
2023-04-02T23:16:39.645Z,4.47
2023-04-02T23:19:42.674Z,4.43
2023-04-02T23:22:45.560Z,4.40
2023-04-02T23:25:48.394Z,4.43
2023-04-02T23:28:51.429Z,4.62
2023-04-02T23:31:54.269Z,4.95
2023-04-02T23:34:57.282Z,4.05
2023-04-02T23:38:00.128Z,4.28
2023-04-02T23:41:03.192Z,4.87
2023-04-02T23:44:08.749Z,4.72
2023-04-02T23:47:11.560Z,4.55
2023-04-02T23:50:14.544Z,4.32
2023-04-02T23:53:18.725Z,4.30
2023-04-02T23:56:22.485Z,5.00
2023-04-02T23:59:25.485Z,4.78
